• Join FlightAware (Why Join?)
  • Login
  • US Flag 
09:28AM EDT


 

Airport Tracker/Info


-or-


 

Live Flight TrackerFlight Track Log ✈ LXJ537 ✈ 30-Apr-2013 ✈ KRNT - KRNO

Flight Track Log - Related Links

Times and Time Zones

All times are in EDT time to prevent confusion due to time zone crossing. See the LXJ537 flight status page for this flight to view local times or setup timezone preferences in your user account.

Time Position Orientation Groundspeed Altitude Reporting Facility
EDT Latitude Longitude Course Direction KTS MPH feet Rate Location/Type
03:45PM 47.5072 -122.2181 North 145 167 1,200  Level Seattle Center
03:46PM 47.5325 -122.2122 North 158 182 3,900 4,680 Climbing Seattle Center
03:46PM 47.5644 -122.2061 North 183 211 6,900 4,800 Climbing Seattle Center
03:47PM 47.5958 -122.1922 17° North 216 249 8,800 2,160 Climbing Seattle Center
03:47PM 47.6050 -122.1475 73° East 263 303 9,100 240 Climbing Seattle Center
03:48PM 47.5789 -122.1031 131° Southeast 275 316 9,100 1,320 Level Seattle Center
03:49PM 47.5081 -122.0472 152° Southeast 294 338 11,200 2,760 Climbing Seattle Center
03:50PM 47.4208 -122.0822 195° South 349 402 14,800 2,400 Climbing Seattle Center
03:51PM 47.3364 -122.1733 216° Southwest 383 441 16,200 2,520 Climbing Seattle Center
03:52PM 47.2178 -122.1614 176° South 437 503 20,000 3,360 Climbing Seattle Center
03:53PM 47.1006 -122.1167 165° South 442 509 23,100 2,700 Climbing Seattle Center
03:54PM 46.9731 -122.0675 165° South 476 548 25,600 2,340 Climbing Seattle Center
03:55PM 46.8378 -122.0178 166° South 504 580 27,900 2,460 Climbing Seattle Center
03:56PM 46.6986 -121.9647 165° South 521 600 30,700 2,520 Climbing Seattle Center
03:57PM 46.5583 -121.9142 166° South 525 604 33,100 2,520 Climbing Seattle Center
03:58PM 46.3892 -121.8508 166° South 529 609 35,900 2,340 Climbing Seattle Center
03:59PM 46.2492 -121.7992 166° South 526 605 37,900 1,620 Climbing Seattle Center
04:00PM 46.1253 -121.7536 166° South 523 602 39,200 1,320 Climbing Seattle Center
04:01PM 45.9828 -121.7028 166° South 527 606 40,700 840 Climbing Seattle Center
04:02PM 45.8181 -121.6417 166° South 515 593 41,000 120 Climbing Seattle Center
04:03PM 45.6836 -121.5936 166° South 506 582 41,000  Level Seattle Center
04:04PM 45.5506 -121.5442 165° South 498 573 41,000  Level Seattle Center
04:05PM 45.4164 -121.4972 166° South 500 575 41,000  Level Seattle Center
04:06PM 45.2819 -121.4492 166° South 501 577 41,000  Level Seattle Center
04:07PM 45.1483 -121.4006 166° South 498 573 41,000  Level Seattle Center
04:08PM 45.0153 -121.3539 166° South 496 571 41,000  Level Seattle Center
04:09PM 44.8825 -121.3075 166° South 495 570 41,000  Level Seattle Center
04:10PM 44.7478 -121.2606 166° South 499 574 41,000  Level Seattle Center
04:11PM 44.6139 -121.2147 166° South 500 575 41,000  Level Seattle Center
04:12PM 44.4775 -121.1678 166° South 502 578 41,000  Level Seattle Center
04:13PM 44.3175 -121.1122 166° South 500 575 41,000  Level Seattle Center
04:14PM 44.1803 -121.0639 166° South 508 585 41,000  Level Seattle Center
04:15PM 44.0425 -121.0200 167° South 509 586 41,000  Level Seattle Center
04:16PM 43.9064 -120.9733 166° South 508 585 41,000  Level Seattle Center
04:17PM 43.7783 -120.9319 167° South 510 587 41,000  Level Seattle Center
04:18PM 43.6336 -120.8811 166° South 506 582 41,000  Level Seattle Center
04:19PM 43.4981 -120.8386 167° South 509 586 41,000  Level Seattle Center
04:20PM 43.3614 -120.7964 167° South 505 581 41,000  Level Seattle Center
04:21PM 43.2258 -120.7503 166° South 501 577 41,000  Level Seattle Center
04:22PM 43.0919 -120.7047 166° South 497 572 41,000  Level Seattle Center
04:23PM 42.9572 -120.6622 167° South 496 571 41,000  Level Seattle Center
04:24PM 42.8211 -120.6172 166° South 499 574 41,000  Level Seattle Center
04:25PM 42.6853 -120.5733 167° South 500 575 41,000  Level Seattle Center
04:26PM 42.5186 -120.5189 166° South 512 589 41,000  Level Seattle Center
04:27PM 42.3803 -120.4750 167° South 510 587 41,000  Level Seattle Center
04:28PM 42.2408 -120.4333 168° South 511 588 41,000  Level Seattle Center
04:30PM 42.1033 -120.3922 167° South 506 582 41,000  Level Seattle Center
04:31PM 41.9658 -120.3522 168° South 505 581 41,000  Level Seattle Center
04:32PM 41.8272 -120.3100 167° South 507 583 41,000  Level Seattle Center
04:33PM 41.6903 -120.2694 168° South 504 580 41,000 -180 Level Seattle Center
04:34PM 41.5525 -120.2311 168° South 504 580 40,700 -1,500 Descending Seattle Center
04:35PM 41.4142 -120.1881 167° South 507 583 38,000 -2,700 Descending Seattle Center
04:36PM 41.2764 -120.1481 168° South 505 581 35,300 -2,640 Descending Seattle Center
04:37PM 41.1406 -120.1089 168° South 499 574 32,700 -2,520 Descending Seattle Center
04:38PM 41.0008 -120.0675 167° South 510 587 30,200 -1,680 Descending Seattle Center
04:39PM 40.8608 -120.0292 168° South 511 588 29,300 -1,500 Descending Seattle Center
04:40PM 40.7261 -119.9911 168° South 499 574 27,200 -2,340 Descending Seattle Center
04:40PM 40.6725 -119.9758 168° South 495 570 26,400 -2,160 Descending Oakland Center
04:41PM 40.5456 -119.9389 168° South 485 558 24,500 -1,920 Descending Oakland Center
04:42PM 40.4153 -119.9028 168° South 479 551 22,500 -1,980 Descending Oakland Center
04:43PM 40.2872 -119.8689 169° South 473 544 20,500 -1,980 Descending Oakland Center
04:44PM 40.1603 -119.8306 167° South 470 541 18,500 -1,920 Descending Oakland Center
04:45PM 40.0419 -119.7986 168° South 447 514 16,600 -1,500 Descending Oakland Center
04:46PM 39.9294 -119.7669 168° South 430 495 15,500 -1,620 Descending Oakland Center
04:47PM 39.8003 -119.7314 168° South 403 464 13,300 -1,860 Descending Oakland Center
04:48PM 39.6922 -119.7031 169° South 399 459 11,800 -1,500 Descending Oakland Center
04:49PM 39.5997 -119.6756 167° South 364 419 10,300 -1,500 Descending Oakland Center
04:50PM 39.5667 -119.6667 168° South 297 342 9,600 -1,680 Descending Northern Cal TRACON
04:51PM 39.5000 -119.6667 180° South 263 303 8,000 -1,500 Descending Northern Cal TRACON
04:52PM 39.4333 -119.7000 201° Southwest 229 264 6,600 -1,200 Descending Northern Cal TRACON
04:53PM 39.4500 -119.7500 293° West 155 178 5,600 -1,140 Descending Northern Cal TRACON
04:54PM 39.4833 -119.7667 237° Southwest  Level FlightAware Approximate
05:01PM 39.4991 -119.7681 237° Southwest  Level Estimated
05:02PM 39.4991 -119.7681 237° Southwest  Level Estimated